»·PEaware :: N283LT KSLC-KDTA

N283LT :: KSLC-KDTA

FLIGHT INFORMATION

Flight Status: Arrived
Operator: Privately registered:
United States
More flights under this callsign
Pilot: Tom D. (17893)
Aircraft: CESSNA T210 TURBO CENTURION
(T210)
More flights by this aircraft type
Origin: KSLC Salt Lake City Intl
United States
Destination: KDTA Delta Mun
United States
More flights between these airports :: More routes between these airports
Route: +FFU V21 RUBOY
File this flight plan on PilotEdge
Remarks: / G
Altitude:
(Current/Filed)
11,000ft
Speed:
(Current/Filed)
200kts
Departed: 06-Jun-18 11:46 AM
Arrived: 06-Jun-18 12:24 PM
Distance/Time
Traveled:
88nm/0:38
Distance/Time
To Go:
Arrived

Flight Plot

Page will automatically refresh every two minutes.

Flight plan parsing failed; only flown route is shown


Map Options




Map Legend


Flown Route
Filed Route
Departure Airport
Arrival Airport
Navaid (VOR, NDB)
Fix

Horizontal Profiles

Position Reports

Time Latitude Longitude Heading Altitude Ground
Speed
06-Jun-18 11:30 40.779249 -111.958532 88 4231ft 0kts
06-Jun-18 11:31 40.779249 -111.958532 87 4231ft 0kts
06-Jun-18 11:32 40.779249 -111.958532 87 4231ft 0kts
06-Jun-18 11:33 40.779249 -111.958532 87 4231ft 0kts
06-Jun-18 11:34 40.779249 -111.958532 87 4231ft 0kts
06-Jun-18 11:35 40.779249 -111.958532 87 4231ft 0kts
06-Jun-18 11:36 40.779249 -111.958532 87 4231ft 0kts
06-Jun-18 11:37 40.779249 -111.958532 88 4231ft 0kts
06-Jun-18 11:38 40.779249 -111.958532 87 4231ft 0kts
06-Jun-18 11:39 40.779316 -111.959069 337 4231ft 9kts
06-Jun-18 11:40 40.782355 -111.959266 297 4231ft 0kts
06-Jun-18 11:41 40.782735 -111.959927 333 4231ft 10kts
06-Jun-18 11:42 40.791568 -111.960038 357 4231ft 37kts
06-Jun-18 11:43 40.798015 -111.960421 279 4231ft 0kts
06-Jun-18 11:44 40.798015 -111.960421 279 4231ft 0kts
06-Jun-18 11:45 40.798012 -111.962072 217 4231ft 9kts
06-Jun-18 11:46 40.785085 -111.962045 178 4402ft 74kts
06-Jun-18 11:47 40.763436 -111.959972 172 5257ft 86kts
06-Jun-18 11:48 40.737248 -111.956411 172 6262ft 100kts
06-Jun-18 11:49 40.708562 -111.952700 175 7281ft 107kts
06-Jun-18 11:50 40.678508 -111.951419 176 8291ft 110kts
06-Jun-18 11:51 40.648057 -111.950454 176 9292ft 110kts
06-Jun-18 11:52 40.617806 -111.949564 176 10281ft 109kts
06-Jun-18 11:53 40.586928 -111.948654 175 11014ft 129kts
06-Jun-18 11:54 40.544628 -111.947725 174 11007ft 164kts
06-Jun-18 11:55 40.498463 -111.946550 174 11004ft 168kts
06-Jun-18 11:56 40.451342 -111.945232 174 11004ft 169kts
06-Jun-18 11:57 40.404325 -111.943902 174 11004ft 170kts
06-Jun-18 11:58 40.357021 -111.942439 178 11032ft 173kts
06-Jun-18 11:59 40.308404 -111.941140 178 11031ft 176kts
06-Jun-18 12:00 40.260569 -111.948676 203 11033ft 176kts
06-Jun-18 12:01 40.215887 -111.974962 204 11031ft 176kts
06-Jun-18 12:02 40.171175 -112.001305 204 11032ft 176kts
06-Jun-18 12:03 40.126553 -112.027532 204 11031ft 176kts
06-Jun-18 12:04 40.081810 -112.053792 204 11032ft 176kts
06-Jun-18 12:05 40.036942 -112.080075 204 11031ft 176kts
06-Jun-18 12:06 39.992026 -112.106364 204 11005ft 178kts
06-Jun-18 12:07 39.948452 -112.131825 204 11004ft 177kts
06-Jun-18 12:08 39.904985 -112.157233 204 11002ft 168kts
06-Jun-18 12:09 39.864562 -112.180788 204 11003ft 165kts
06-Jun-18 12:10 39.822730 -112.205134 204 11003ft 164kts
06-Jun-18 12:11 39.781300 -112.229161 208 11030ft 163kts
06-Jun-18 12:12 39.740491 -112.253101 206 10940ft 159kts
06-Jun-18 12:13 39.697180 -112.278148 206 10011ft 173kts
06-Jun-18 12:14 39.656705 -112.301546 206 9982ft 150kts
06-Jun-18 12:15 39.619569 -112.323526 211 9984ft 145kts
06-Jun-18 12:16 39.584879 -112.349758 212 9984ft 144kts
06-Jun-18 12:17 39.554794 -112.383601 222 9336ft 141kts
06-Jun-18 12:18 39.525782 -112.417857 221 8758ft 141kts
06-Jun-18 12:19 39.499632 -112.451446 228 8225ft 130kts
06-Jun-18 12:20 39.480994 -112.483982 236 7550ft 101kts
06-Jun-18 12:21 39.458068 -112.501582 190 6454ft 99kts
06-Jun-18 12:22 39.430911 -112.502045 183 5553ft 93kts
06-Jun-18 12:23 39.405481 -112.502032 187 5137ft 92kts
06-Jun-18 12:24 39.385140 -112.502353 172 4762ft 39kts
06-Jun-18 12:25 39.375221 -112.502184 186 4762ft 13kts

Navigation Log

Ident Type
Flight plan parsing failed, navigation log unavailable